Aérodrome :
LOGIN :

S'inscrire | Disclaimer

   EN    FR    IT 

 










Légende :    VFR   VFR Marginal   IFR   IFR Intensif   IFR Très Intensif
Visi : 
Plafond : 
>= 8 km
>= 3000ft
5 à 8 km
1000 à 3000 ft
1500m à 5 km
500 à 1000 ft
800 à 1500m
200 à 500 ft
< 800m
< 200 ft
Symboles :   Orages  Brouillard  Fortes neiges  Fortes précipitations  Vent > 20 kt
SIGMETs :   Divers  Orages  Givrage  Turbulence  Onde Orograph.  Cendres Volcan.







- Altitude de l'aérodrome : 13 ft
- Code IATA : LYX
- Voir les cartes d'approche


EGMD - Lydd

DERNIER METAR :
  • 210320Z AUTO 34007KT 4300 BR NCD M03/M03 Q1024

METARs EXPIRÉS :
  • 210250Z AUTO 34007KT 4500 BR NCD M02/M03 Q1024
  • 210220Z AUTO 35007KT 4600 BR NCD M02/M03 Q1024
  • 210150Z AUTO 35006KT 4800 BR NCD M02/M03 Q1024
  • 210120Z AUTO 35007KT 5000 BR NCD M02/M02 Q1024
  • 210050Z AUTO 35008KT 5000 BR NCD M02/M02 Q1024

TAF TAF EGMD
Valide du 21 à 03h jusqu'au 21 à 12h UTC


210153Z 2103/2112 30008KT 6000 FEW030
TEMPO 2103/2110 3000 BR
BECMG 2109/2112 9999
ATIS : +44 1797 322 422
Pas de NOTAMs connus pour ce terrain.



MET'MAP, la Météo Aéronautique d'un coup d'oeil ! - Copyright ORBIFLY Décembre 2007 - Disclaimer

ORBIFLY MET'MAP TEAM :

Programmation & Développement : Alexandra Zaïnal
Conception & Développement : Baudouin d'Aumeries
Co-Programmation & Développement : Marc-Olivier Méhu
Soutien technique & logistique : Manuel Goepfert

Contact : metmap@orbifly.com




SOURCES & CREDITS :

   NOAA